sensor_id;sensor_type;location;lat;lon;timestamp;P1;durP1;ratioP1;P2;durP2;ratioP2
40621;SDS011;26324;52.040;11.528;2023-08-31T00:00:15;2.30;;;1.42;;
40621;SDS011;26324;52.040;11.528;2023-08-31T00:02:43;2.33;;;1.20;;
40621;SDS011;26324;52.040;11.528;2023-08-31T00:05:10;2.97;;;1.08;;
40621;SDS011;26324;52.040;11.528;2023-08-31T00:07:37;3.88;;;1.40;;
40621;SDS011;26324;52.040;11.528;2023-08-31T00:10:05;2.30;;;0.98;;
40621;SDS011;26324;52.040;11.528;2023-08-31T00:12:37;2.33;;;1.13;;
40621;SDS011;26324;52.040;11.528;2023-08-31T00:15:04;1.52;;;0.90;;
40621;SDS011;26324;52.040;11.528;2023-08-31T00:17:32;1.13;;;0.80;;
40621;SDS011;26324;52.040;11.528;2023-08-31T00:19:59;1.85;;;0.90;;
40621;SDS011;26324;52.040;11.528;2023-08-31T00:22:28;2.90;;;1.00;;
40621;SDS011;26324;52.040;11.528;2023-08-31T00:24:55;2.50;;;1.00;;
40621;SDS011;26324;52.040;11.528;2023-08-31T00:27:22;1.70;;;0.90;;
40621;SDS011;26324;52.040;11.528;2023-08-31T00:29:50;3.08;;;0.90;;
40621;SDS011;26324;52.040;11.528;2023-08-31T00:32:17;1.58;;;0.75;;
40621;SDS011;26324;52.040;11.528;2023-08-31T00:34:45;1.67;;;0.93;;
40621;SDS011;26324;52.040;11.528;2023-08-31T00:37:12;1.77;;;1.08;;
40621;SDS011;26324;52.040;11.528;2023-08-31T00:39:40;2.17;;;0.90;;
40621;SDS011;26324;52.040;11.528;2023-08-31T00:42:08;2.30;;;1.23;;
40621;SDS011;26324;52.040;11.528;2023-08-31T00:44:35;2.00;;;1.00;;
40621;SDS011;26324;52.040;11.528;2023-08-31T00:47:04;2.08;;;1.10;;
40621;SDS011;26324;52.040;11.528;2023-08-31T00:49:32;1.65;;;0.88;;
40621;SDS011;26324;52.040;11.528;2023-08-31T00:52:01;1.88;;;1.10;;
40621;SDS011;26324;52.040;11.528;2023-08-31T00:54:29;2.58;;;1.08;;
40621;SDS011;26324;52.040;11.528;2023-08-31T00:56:56;3.17;;;1.10;;
40621;SDS011;26324;52.040;11.528;2023-08-31T00:59:24;3.13;;;0.95;;
40621;SDS011;26324;52.040;11.528;2023-08-31T01:02:15;2.40;;;1.10;;
40621;SDS011;26324;52.040;11.528;2023-08-31T01:05:04;1.35;;;0.77;;
40621;SDS011;26324;52.040;11.528;2023-08-31T01:13:07;1.83;;;1.00;;
40621;SDS011;26324;52.040;11.528;2023-08-31T01:15:49;2.17;;;0.90;;
40621;SDS011;26324;52.040;11.528;2023-08-31T01:18:21;2.25;;;1.00;;
40621;SDS011;26324;52.040;11.528;2023-08-31T01:20:58;2.20;;;1.00;;
40621;SDS011;26324;52.040;11.528;2023-08-31T01:26:20;2.78;;;1.20;;
40621;SDS011;26324;52.040;11.528;2023-08-31T01:28:50;2.00;;;0.98;;
40621;SDS011;26324;52.040;11.528;2023-08-31T01:31:18;2.38;;;1.20;;
40621;SDS011;26324;52.040;11.528;2023-08-31T01:33:46;3.38;;;0.80;;
40621;SDS011;26324;52.040;11.528;2023-08-31T01:36:19;1.45;;;0.95;;
40621;SDS011;26324;52.040;11.528;2023-08-31T01:38:54;2.08;;;0.77;;
40621;SDS011;26324;52.040;11.528;2023-08-31T01:41:30;2.00;;;0.90;;
40621;SDS011;26324;52.040;11.528;2023-08-31T01:44:02;1.45;;;0.95;;
40621;SDS011;26324;52.040;11.528;2023-08-31T01:46:31;1.65;;;0.82;;
40621;SDS011;26324;52.040;11.528;2023-08-31T01:48:59;2.33;;;1.10;;
40621;SDS011;26324;52.040;11.528;2023-08-31T01:51:28;1.95;;;1.10;;
40621;SDS011;26324;52.040;11.528;2023-08-31T01:53:55;2.03;;;1.60;;
40621;SDS011;26324;52.040;11.528;2023-08-31T01:56:25;3.42;;;1.10;;
40621;SDS011;26324;52.040;11.528;2023-08-31T01:58:52;1.77;;;1.05;;
40621;SDS011;26324;52.040;11.528;2023-08-31T02:01:20;1.20;;;0.82;;
40621;SDS011;26324;52.040;11.528;2023-08-31T02:03:47;2.05;;;1.00;;
40621;SDS011;26324;52.040;11.528;2023-08-31T02:06:15;3.20;;;1.10;;
40621;SDS011;26324;52.040;11.528;2023-08-31T02:08:42;1.92;;;0.90;;
40621;SDS011;26324;52.040;11.528;2023-08-31T02:13:38;2.05;;;1.13;;
40621;SDS011;26324;52.040;11.528;2023-08-31T02:16:05;2.20;;;1.10;;
40621;SDS011;26324;52.040;11.528;2023-08-31T02:18:35;1.90;;;0.88;;
40621;SDS011;26324;52.040;11.528;2023-08-31T02:21:02;2.65;;;1.40;;
40621;SDS011;26324;52.040;11.528;2023-08-31T02:23:32;2.33;;;1.35;;
40621;SDS011;26324;52.040;11.528;2023-08-31T02:26:01;2.03;;;0.95;;
40621;SDS011;26324;52.040;11.528;2023-08-31T02:28:28;2.60;;;1.30;;
40621;SDS011;26324;52.040;11.528;2023-08-31T02:31:01;3.38;;;1.42;;
40621;SDS011;26324;52.040;11.528;2023-08-31T02:33:30;2.40;;;1.30;;
40621;SDS011;26324;52.040;11.528;2023-08-31T02:35:58;3.45;;;1.90;;
40621;SDS011;26324;52.040;11.528;2023-08-31T02:38:26;3.90;;;1.95;;
40621;SDS011;26324;52.040;11.528;2023-08-31T02:40:54;3.30;;;2.10;;
40621;SDS011;26324;52.040;11.528;2023-08-31T02:43:21;3.90;;;1.95;;
40621;SDS011;26324;52.040;11.528;2023-08-31T02:45:48;3.78;;;2.50;;
40621;SDS011;26324;52.040;11.528;2023-08-31T02:48:16;4.55;;;1.80;;
40621;SDS011;26324;52.040;11.528;2023-08-31T02:50:43;4.18;;;1.83;;
40621;SDS011;26324;52.040;11.528;2023-08-31T02:53:11;6.15;;;2.00;;
40621;SDS011;26324;52.040;11.528;2023-08-31T02:55:41;4.40;;;1.83;;
40621;SDS011;26324;52.040;11.528;2023-08-31T02:58:09;3.30;;;2.17;;
40621;SDS011;26324;52.040;11.528;2023-08-31T03:00:37;3.25;;;2.17;;
40621;SDS011;26324;52.040;11.528;2023-08-31T03:03:09;3.33;;;1.95;;
40621;SDS011;26324;52.040;11.528;2023-08-31T03:05:37;3.33;;;2.13;;
40621;SDS011;26324;52.040;11.528;2023-08-31T03:08:05;4.63;;;2.42;;
40621;SDS011;26324;52.040;11.528;2023-08-31T03:10:32;5.80;;;2.20;;
40621;SDS011;26324;52.040;11.528;2023-08-31T03:13:01;3.90;;;2.30;;
40621;SDS011;26324;52.040;11.528;2023-08-31T03:15:28;6.80;;;2.42;;
40621;SDS011;26324;52.040;11.528;2023-08-31T03:17:56;5.70;;;2.22;;
40621;SDS011;26324;52.040;11.528;2023-08-31T03:20:24;4.05;;;2.35;;
40621;SDS011;26324;52.040;11.528;2023-08-31T03:22:52;5.85;;;2.45;;
40621;SDS011;26324;52.040;11.528;2023-08-31T03:25:19;4.32;;;2.30;;
40621;SDS011;26324;52.040;11.528;2023-08-31T03:27:47;7.97;;;2.13;;
40621;SDS011;26324;52.040;11.528;2023-08-31T03:30:14;3.50;;;1.98;;
40621;SDS011;26324;52.040;11.528;2023-08-31T03:32:42;4.80;;;2.50;;
40621;SDS011;26324;52.040;11.528;2023-08-31T03:35:10;5.97;;;2.15;;
40621;SDS011;26324;52.040;11.528;2023-08-31T03:37:37;5.05;;;2.42;;
40621;SDS011;26324;52.040;11.528;2023-08-31T03:40:05;5.82;;;2.33;;
40621;SDS011;26324;52.040;11.528;2023-08-31T03:42:35;4.22;;;2.10;;
40621;SDS011;26324;52.040;11.528;2023-08-31T03:45:05;4.50;;;2.00;;
40621;SDS011;26324;52.040;11.528;2023-08-31T03:47:33;5.75;;;2.50;;
40621;SDS011;26324;52.040;11.528;2023-08-31T03:50:01;4.88;;;2.70;;
40621;SDS011;26324;52.040;11.528;2023-08-31T03:52:28;3.38;;;2.17;;
40621;SDS011;26324;52.040;11.528;2023-08-31T03:54:56;4.30;;;1.95;;
40621;SDS011;26324;52.040;11.528;2023-08-31T03:57:23;5.88;;;2.47;;
40621;SDS011;26324;52.040;11.528;2023-08-31T03:59:53;4.70;;;1.88;;
40621;SDS011;26324;52.040;11.528;2023-08-31T04:02:20;5.97;;;2.40;;
40621;SDS011;26324;52.040;11.528;2023-08-31T04:04:48;4.78;;;2.33;;
40621;SDS011;26324;52.040;11.528;2023-08-31T04:07:15;4.78;;;2.72;;
40621;SDS011;26324;52.040;11.528;2023-08-31T04:09:43;4.25;;;2.13;;
40621;SDS011;26324;52.040;11.528;2023-08-31T04:12:10;5.25;;;2.55;;
40621;SDS011;26324;52.040;11.528;2023-08-31T04:14:37;4.10;;;1.83;;
40621;SDS011;26324;52.040;11.528;2023-08-31T04:17:05;6.13;;;2.45;;
40621;SDS011;26324;52.040;11.528;2023-08-31T04:19:32;5.18;;;2.80;;
40621;SDS011;26324;52.040;11.528;2023-08-31T04:21:59;4.57;;;2.35;;
40621;SDS011;26324;52.040;11.528;2023-08-31T04:24:28;6.07;;;2.88;;
40621;SDS011;26324;52.040;11.528;2023-08-31T04:26:56;6.38;;;2.58;;
40621;SDS011;26324;52.040;11.528;2023-08-31T04:29:23;5.60;;;1.92;;
40621;SDS011;26324;52.040;11.528;2023-08-31T04:31:51;4.63;;;2.30;;
40621;SDS011;26324;52.040;11.528;2023-08-31T04:34:19;4.30;;;2.10;;
40621;SDS011;26324;52.040;11.528;2023-08-31T04:36:46;4.93;;;2.30;;
40621;SDS011;26324;52.040;11.528;2023-08-31T04:39:13;2.67;;;1.70;;
40621;SDS011;26324;52.040;11.528;2023-08-31T04:41:41;5.45;;;2.42;;
40621;SDS011;26324;52.040;11.528;2023-08-31T04:44:08;3.72;;;2.17;;
40621;SDS011;26324;52.040;11.528;2023-08-31T04:46:35;4.38;;;2.00;;
40621;SDS011;26324;52.040;11.528;2023-08-31T04:49:03;3.50;;;2.05;;
40621;SDS011;26324;52.040;11.528;2023-08-31T04:51:30;3.22;;;1.60;;
40621;SDS011;26324;52.040;11.528;2023-08-31T04:54:02;3.20;;;1.90;;
40621;SDS011;26324;52.040;11.528;2023-08-31T04:56:30;4.57;;;2.20;;
40621;SDS011;26324;52.040;11.528;2023-08-31T04:58:59;4.95;;;2.53;;
40621;SDS011;26324;52.040;11.528;2023-08-31T05:01:27;3.22;;;1.80;;
40621;SDS011;26324;52.040;11.528;2023-08-31T05:03:55;4.05;;;2.33;;
40621;SDS011;26324;52.040;11.528;2023-08-31T05:06:22;5.35;;;2.83;;
40621;SDS011;26324;52.040;11.528;2023-08-31T05:08:50;5.70;;;2.70;;
40621;SDS011;26324;52.040;11.528;2023-08-31T05:11:17;6.05;;;2.20;;
40621;SDS011;26324;52.040;11.528;2023-08-31T05:13:46;4.13;;;2.00;;
40621;SDS011;26324;52.040;11.528;2023-08-31T05:16:14;3.05;;;2.13;;
40621;SDS011;26324;52.040;11.528;2023-08-31T05:18:41;2.75;;;2.30;;
40621;SDS011;26324;52.040;11.528;2023-08-31T05:21:08;3.35;;;2.20;;
40621;SDS011;26324;52.040;11.528;2023-08-31T05:23:36;4.38;;;2.05;;
40621;SDS011;26324;52.040;11.528;2023-08-31T05:26:04;6.20;;;2.15;;
40621;SDS011;26324;52.040;11.528;2023-08-31T05:28:31;3.60;;;1.88;;
40621;SDS011;26324;52.040;11.528;2023-08-31T05:31:00;4.53;;;2.10;;
40621;SDS011;26324;52.040;11.528;2023-08-31T05:33:29;3.95;;;2.00;;
40621;SDS011;26324;52.040;11.528;2023-08-31T05:36:01;3.83;;;2.20;;
40621;SDS011;26324;52.040;11.528;2023-08-31T05:38:32;4.03;;;1.80;;
40621;SDS011;26324;52.040;11.528;2023-08-31T05:41:07;4.13;;;2.38;;
40621;SDS011;26324;52.040;11.528;2023-08-31T05:43:37;5.70;;;1.88;;
40621;SDS011;26324;52.040;11.528;2023-08-31T05:46:09;3.20;;;1.77;;
40621;SDS011;26324;52.040;11.528;2023-08-31T05:48:36;4.55;;;1.90;;
40621;SDS011;26324;52.040;11.528;2023-08-31T05:51:04;4.15;;;2.05;;
40621;SDS011;26324;52.040;11.528;2023-08-31T05:53:31;3.58;;;2.25;;
40621;SDS011;26324;52.040;11.528;2023-08-31T05:55:59;3.28;;;2.10;;
40621;SDS011;26324;52.040;11.528;2023-08-31T05:58:34;3.33;;;2.20;;
40621;SDS011;26324;52.040;11.528;2023-08-31T06:01:05;8.48;;;2.47;;
40621;SDS011;26324;52.040;11.528;2023-08-31T06:03:33;4.15;;;1.85;;
40621;SDS011;26324;52.040;11.528;2023-08-31T06:06:01;3.17;;;2.17;;
40621;SDS011;26324;52.040;11.528;2023-08-31T06:08:30;2.53;;;1.70;;
40621;SDS011;26324;52.040;11.528;2023-08-31T06:10:57;3.28;;;2.08;;
40621;SDS011;26324;52.040;11.528;2023-08-31T06:13:25;2.58;;;1.60;;
40621;SDS011;26324;52.040;11.528;2023-08-31T06:15:52;5.63;;;2.28;;
40621;SDS011;26324;52.040;11.528;2023-08-31T06:18:22;4.60;;;2.15;;
40621;SDS011;26324;52.040;11.528;2023-08-31T06:20:50;3.63;;;1.88;;
40621;SDS011;26324;52.040;11.528;2023-08-31T06:23:17;4.50;;;2.22;;
40621;SDS011;26324;52.040;11.528;2023-08-31T06:25:44;3.60;;;2.00;;
40621;SDS011;26324;52.040;11.528;2023-08-31T06:28:13;3.40;;;2.15;;
40621;SDS011;26324;52.040;11.528;2023-08-31T06:30:41;3.95;;;1.83;;
40621;SDS011;26324;52.040;11.528;2023-08-31T06:33:14;5.35;;;2.03;;
40621;SDS011;26324;52.040;11.528;2023-08-31T06:35:42;3.50;;;1.98;;
40621;SDS011;26324;52.040;11.528;2023-08-31T06:38:11;6.65;;;2.42;;
40621;SDS011;26324;52.040;11.528;2023-08-31T06:40:38;6.70;;;2.33;;
40621;SDS011;26324;52.040;11.528;2023-08-31T06:43:05;4.90;;;2.08;;
40621;SDS011;26324;52.040;11.528;2023-08-31T06:45:33;4.15;;;2.10;;
40621;SDS011;26324;52.040;11.528;2023-08-31T06:48:01;4.35;;;2.10;;
40621;SDS011;26324;52.040;11.528;2023-08-31T06:50:29;5.03;;;2.13;;
40621;SDS011;26324;52.040;11.528;2023-08-31T06:52:58;3.50;;;1.65;;
40621;SDS011;26324;52.040;11.528;2023-08-31T06:55:34;3.45;;;1.65;;
40621;SDS011;26324;52.040;11.528;2023-08-31T06:58:02;3.47;;;2.08;;
40621;SDS011;26324;52.040;11.528;2023-08-31T07:00:31;3.75;;;2.47;;
40621;SDS011;26324;52.040;11.528;2023-08-31T07:03:01;2.90;;;2.17;;
40621;SDS011;26324;52.040;11.528;2023-08-31T07:05:29;3.15;;;1.92;;
40621;SDS011;26324;52.040;11.528;2023-08-31T07:08:02;3.42;;;1.90;;
40621;SDS011;26324;52.040;11.528;2023-08-31T07:10:30;3.75;;;2.47;;
40621;SDS011;26324;52.040;11.528;2023-08-31T07:12:57;4.22;;;1.98;;
40621;SDS011;26324;52.040;11.528;2023-08-31T07:15:24;4.80;;;1.73;;
40621;SDS011;26324;52.040;11.528;2023-08-31T07:17:52;4.68;;;2.10;;
40621;SDS011;26324;52.040;11.528;2023-08-31T07:20:19;2.58;;;1.75;;
40621;SDS011;26324;52.040;11.528;2023-08-31T07:22:47;2.58;;;1.50;;
40621;SDS011;26324;52.040;11.528;2023-08-31T07:25:14;4.25;;;1.92;;
40621;SDS011;26324;52.040;11.528;2023-08-31T07:27:41;3.67;;;1.80;;
40621;SDS011;26324;52.040;11.528;2023-08-31T07:30:09;4.40;;;2.10;;
40621;SDS011;26324;52.040;11.528;2023-08-31T07:32:37;3.85;;;1.48;;
40621;SDS011;26324;52.040;11.528;2023-08-31T07:35:04;4.07;;;1.77;;
40621;SDS011;26324;52.040;11.528;2023-08-31T07:40:01;3.47;;;1.60;;
40621;SDS011;26324;52.040;11.528;2023-08-31T07:42:28;3.88;;;1.83;;
40621;SDS011;26324;52.040;11.528;2023-08-31T07:44:56;3.33;;;1.40;;
40621;SDS011;26324;52.040;11.528;2023-08-31T07:47:23;6.32;;;1.85;;
40621;SDS011;26324;52.040;11.528;2023-08-31T07:49:51;2.92;;;1.90;;
40621;SDS011;26324;52.040;11.528;2023-08-31T07:52:18;3.05;;;1.70;;
40621;SDS011;26324;52.040;11.528;2023-08-31T07:54:46;5.18;;;1.65;;
40621;SDS011;26324;52.040;11.528;2023-08-31T07:57:13;3.17;;;1.30;;
40621;SDS011;26324;52.040;11.528;2023-08-31T07:59:40;1.45;;;0.90;;
40621;SDS011;26324;52.040;11.528;2023-08-31T08:02:08;3.40;;;1.20;;
40621;SDS011;26324;52.040;11.528;2023-08-31T08:04:36;2.35;;;1.20;;
40621;SDS011;26324;52.040;11.528;2023-08-31T08:07:03;2.03;;;1.25;;
40621;SDS011;26324;52.040;11.528;2023-08-31T08:09:31;1.75;;;1.00;;
40621;SDS011;26324;52.040;11.528;2023-08-31T08:11:58;1.48;;;0.88;;
40621;SDS011;26324;52.040;11.528;2023-08-31T08:14:25;1.52;;;1.10;;
40621;SDS011;26324;52.040;11.528;2023-08-31T08:16:53;1.73;;;0.90;;
40621;SDS011;26324;52.040;11.528;2023-08-31T08:19:23;1.45;;;1.05;;
40621;SDS011;26324;52.040;11.528;2023-08-31T08:21:51;1.80;;;1.15;;
40621;SDS011;26324;52.040;11.528;2023-08-31T08:24:18;2.00;;;1.20;;
40621;SDS011;26324;52.040;11.528;2023-08-31T08:26:46;1.52;;;0.95;;
40621;SDS011;26324;52.040;11.528;2023-08-31T08:29:13;1.58;;;1.10;;
40621;SDS011;26324;52.040;11.528;2023-08-31T08:31:41;1.50;;;1.10;;
40621;SDS011;26324;52.040;11.528;2023-08-31T08:36:36;2.83;;;1.42;;
40621;SDS011;26324;52.040;11.528;2023-08-31T08:39:04;2.53;;;1.15;;
40621;SDS011;26324;52.040;11.528;2023-08-31T08:41:32;1.95;;;1.30;;
40621;SDS011;26324;52.040;11.528;2023-08-31T08:44:02;2.17;;;1.10;;
40621;SDS011;26324;52.040;11.528;2023-08-31T08:46:30;2.17;;;0.85;;
40621;SDS011;26324;52.040;11.528;2023-08-31T08:48:59;3.17;;;1.02;;
40621;SDS011;26324;52.040;11.528;2023-08-31T08:51:30;1.50;;;1.17;;
40621;SDS011;26324;52.040;11.528;2023-08-31T08:53:59;2.35;;;1.00;;
40621;SDS011;26324;52.040;11.528;2023-08-31T08:56:26;1.40;;;0.80;;
40621;SDS011;26324;52.040;11.528;2023-08-31T08:58:54;1.40;;;0.95;;
40621;SDS011;26324;52.040;11.528;2023-08-31T09:01:22;1.20;;;0.77;;
40621;SDS011;26324;52.040;11.528;2023-08-31T09:03:51;1.63;;;1.10;;
40621;SDS011;26324;52.040;11.528;2023-08-31T09:06:19;2.15;;;1.15;;
40621;SDS011;26324;52.040;11.528;2023-08-31T09:08:53;2.10;;;1.13;;
40621;SDS011;26324;52.040;11.528;2023-08-31T09:11:24;2.00;;;1.40;;
40621;SDS011;26324;52.040;11.528;2023-08-31T09:13:52;2.50;;;1.60;;
40621;SDS011;26324;52.040;11.528;2023-08-31T09:16:23;3.05;;;1.50;;
40621;SDS011;26324;52.040;11.528;2023-08-31T09:18:52;1.60;;;1.08;;
40621;SDS011;26324;52.040;11.528;2023-08-31T09:21:21;1.35;;;0.90;;
40621;SDS011;26324;52.040;11.528;2023-08-31T09:23:57;1.85;;;1.35;;
40621;SDS011;26324;52.040;11.528;2023-08-31T09:26:25;1.83;;;1.00;;
40621;SDS011;26324;52.040;11.528;2023-08-31T09:28:52;1.92;;;1.20;;
40621;SDS011;26324;52.040;11.528;2023-08-31T09:31:19;1.40;;;1.02;;
40621;SDS011;26324;52.040;11.528;2023-08-31T09:33:51;2.20;;;1.25;;
40621;SDS011;26324;52.040;11.528;2023-08-31T09:36:19;3.78;;;0.95;;
40621;SDS011;26324;52.040;11.528;2023-08-31T09:38:47;1.20;;;0.77;;
40621;SDS011;26324;52.040;11.528;2023-08-31T09:41:15;1.33;;;0.80;;
40621;SDS011;26324;52.040;11.528;2023-08-31T09:43:42;1.88;;;0.88;;
40621;SDS011;26324;52.040;11.528;2023-08-31T09:46:10;0.68;;;0.57;;
40621;SDS011;26324;52.040;11.528;2023-08-31T09:48:38;0.93;;;0.60;;
40621;SDS011;26324;52.040;11.528;2023-08-31T09:51:11;1.25;;;0.70;;
40621;SDS011;26324;52.040;11.528;2023-08-31T09:53:40;1.13;;;0.70;;
40621;SDS011;26324;52.040;11.528;2023-08-31T09:56:10;1.90;;;0.90;;
40621;SDS011;26324;52.040;11.528;2023-08-31T09:58:44;0.77;;;0.70;;
40621;SDS011;26324;52.040;11.528;2023-08-31T10:01:11;1.95;;;0.85;;
40621;SDS011;26324;52.040;11.528;2023-08-31T10:03:54;0.95;;;0.60;;
40621;SDS011;26324;52.040;11.528;2023-08-31T10:06:23;1.30;;;0.90;;
40621;SDS011;26324;52.040;11.528;2023-08-31T10:08:51;2.15;;;0.80;;
40621;SDS011;26324;52.040;11.528;2023-08-31T10:11:19;0.90;;;0.70;;
40621;SDS011;26324;52.040;11.528;2023-08-31T10:13:49;1.27;;;0.80;;
40621;SDS011;26324;52.040;11.528;2023-08-31T10:16:16;1.48;;;0.90;;
40621;SDS011;26324;52.040;11.528;2023-08-31T10:18:46;2.10;;;0.95;;
40621;SDS011;26324;52.040;11.528;2023-08-31T10:21:16;1.40;;;0.75;;
40621;SDS011;26324;52.040;11.528;2023-08-31T10:23:47;1.10;;;1.00;;
40621;SDS011;26324;52.040;11.528;2023-08-31T10:26:26;3.75;;;0.90;;
40621;SDS011;26324;52.040;11.528;2023-08-31T10:28:58;1.30;;;0.98;;
40621;SDS011;26324;52.040;11.528;2023-08-31T10:31:30;2.47;;;0.77;;
40621;SDS011;26324;52.040;11.528;2023-08-31T10:33:59;1.35;;;0.93;;
40621;SDS011;26324;52.040;11.528;2023-08-31T10:36:34;0.60;;;0.50;;
40621;SDS011;26324;52.040;11.528;2023-08-31T10:39:14;2.50;;;0.77;;
40621;SDS011;26324;52.040;11.528;2023-08-31T10:41:55;0.70;;;0.40;;
40621;SDS011;26324;52.040;11.528;2023-08-31T10:44:24;0.98;;;0.70;;
40621;SDS011;26324;52.040;11.528;2023-08-31T10:46:53;0.85;;;0.50;;
40621;SDS011;26324;52.040;11.528;2023-08-31T10:49:21;1.70;;;0.68;;
40621;SDS011;26324;52.040;11.528;2023-08-31T10:51:53;1.65;;;0.70;;
40621;SDS011;26324;52.040;11.528;2023-08-31T10:54:22;1.25;;;0.50;;
40621;SDS011;26324;52.040;11.528;2023-08-31T11:02:06;0.65;;;0.40;;
40621;SDS011;26324;52.040;11.528;2023-08-31T11:04:52;1.02;;;0.90;;
40621;SDS011;26324;52.040;11.528;2023-08-31T11:07:24;2.33;;;0.60;;
40621;SDS011;26324;52.040;11.528;2023-08-31T11:10:05;0.75;;;0.47;;
40621;SDS011;26324;52.040;11.528;2023-08-31T11:12:37;1.08;;;0.73;;
40621;SDS011;26324;52.040;11.528;2023-08-31T11:15:06;0.70;;;0.50;;
40621;SDS011;26324;52.040;11.528;2023-08-31T11:17:34;1.15;;;0.28;;
40621;SDS011;26324;52.040;11.528;2023-08-31T11:20:03;2.50;;;0.55;;
40621;SDS011;26324;52.040;11.528;2023-08-31T11:22:32;1.73;;;0.55;;
40621;SDS011;26324;52.040;11.528;2023-08-31T11:25:00;1.15;;;0.55;;
40621;SDS011;26324;52.040;11.528;2023-08-31T11:27:28;1.15;;;0.43;;
40621;SDS011;26324;52.040;11.528;2023-08-31T11:29:55;3.97;;;0.63;;
40621;SDS011;26324;52.040;11.528;2023-08-31T11:32:25;0.57;;;0.35;;
40621;SDS011;26324;52.040;11.528;2023-08-31T11:34:53;1.45;;;0.50;;
40621;SDS011;26324;52.040;11.528;2023-08-31T11:37:20;2.05;;;0.50;;
40621;SDS011;26324;52.040;11.528;2023-08-31T11:39:51;1.60;;;0.93;;
40621;SDS011;26324;52.040;11.528;2023-08-31T11:42:20;3.22;;;1.00;;
40621;SDS011;26324;52.040;11.528;2023-08-31T11:44:49;1.92;;;1.10;;
40621;SDS011;26324;52.040;11.528;2023-08-31T11:47:19;2.47;;;0.90;;
40621;SDS011;26324;52.040;11.528;2023-08-31T11:49:47;1.73;;;0.65;;
40621;SDS011;26324;52.040;11.528;2023-08-31T11:52:15;0.98;;;0.63;;
40621;SDS011;26324;52.040;11.528;2023-08-31T11:54:43;1.05;;;0.60;;
40621;SDS011;26324;52.040;11.528;2023-08-31T11:57:12;0.60;;;0.32;;
40621;SDS011;26324;52.040;11.528;2023-08-31T11:59:41;1.20;;;0.60;;
40621;SDS011;26324;52.040;11.528;2023-08-31T12:02:08;1.08;;;0.60;;
40621;SDS011;26324;52.040;11.528;2023-08-31T12:04:42;0.90;;;0.63;;
40621;SDS011;26324;52.040;11.528;2023-08-31T12:07:11;2.13;;;0.70;;
40621;SDS011;26324;52.040;11.528;2023-08-31T12:09:42;1.00;;;0.60;;
40621;SDS011;26324;52.040;11.528;2023-08-31T12:12:13;1.13;;;0.65;;
40621;SDS011;26324;52.040;11.528;2023-08-31T12:14:43;1.55;;;0.80;;
40621;SDS011;26324;52.040;11.528;2023-08-31T12:19:40;1.33;;;0.50;;
40621;SDS011;26324;52.040;11.528;2023-08-31T12:22:08;0.60;;;0.50;;
40621;SDS011;26324;52.040;11.528;2023-08-31T12:24:40;2.25;;;0.65;;
40621;SDS011;26324;52.040;11.528;2023-08-31T12:27:08;0.80;;;0.40;;
40621;SDS011;26324;52.040;11.528;2023-08-31T12:29:36;1.08;;;0.40;;
40621;SDS011;26324;52.040;11.528;2023-08-31T12:32:04;0.30;;;0.30;;
40621;SDS011;26324;52.040;11.528;2023-08-31T12:34:32;0.20;;;0.20;;
40621;SDS011;26324;52.040;11.528;2023-08-31T12:36:59;1.27;;;0.70;;
40621;SDS011;26324;52.040;11.528;2023-08-31T12:39:29;1.60;;;0.57;;
40621;SDS011;26324;52.040;11.528;2023-08-31T12:41:57;2.50;;;0.70;;
40621;SDS011;26324;52.040;11.528;2023-08-31T12:44:43;1.13;;;0.60;;
40621;SDS011;26324;52.040;11.528;2023-08-31T12:47:10;1.20;;;0.73;;
40621;SDS011;26324;52.040;11.528;2023-08-31T12:49:37;0.98;;;0.73;;
40621;SDS011;26324;52.040;11.528;2023-08-31T12:52:05;1.65;;;0.60;;
40621;SDS011;26324;52.040;11.528;2023-08-31T12:54:32;2.50;;;0.52;;
40621;SDS011;26324;52.040;11.528;2023-08-31T12:57:00;1.50;;;0.63;;
40621;SDS011;26324;52.040;11.528;2023-08-31T12:59:28;1.08;;;0.52;;
40621;SDS011;26324;52.040;11.528;2023-08-31T13:01:55;1.27;;;0.80;;
40621;SDS011;26324;52.040;11.528;2023-08-31T13:04:24;1.08;;;0.77;;
40621;SDS011;26324;52.040;11.528;2023-08-31T13:06:51;2.60;;;0.98;;
40621;SDS011;26324;52.040;11.528;2023-08-31T13:09:18;0.63;;;0.43;;
40621;SDS011;26324;52.040;11.528;2023-08-31T13:11:46;0.50;;;0.45;;
40621;SDS011;26324;52.040;11.528;2023-08-31T13:14:13;0.93;;;0.60;;
40621;SDS011;26324;52.040;11.528;2023-08-31T13:16:41;1.27;;;0.50;;
40621;SDS011;26324;52.040;11.528;2023-08-31T13:19:08;2.08;;;0.65;;
40621;SDS011;26324;52.040;11.528;2023-08-31T13:21:36;1.13;;;0.35;;
40621;SDS011;26324;52.040;11.528;2023-08-31T13:24:04;0.43;;;0.30;;
40621;SDS011;26324;52.040;11.528;2023-08-31T13:26:31;1.10;;;0.40;;
40621;SDS011;26324;52.040;11.528;2023-08-31T13:28:58;0.60;;;0.52;;
40621;SDS011;26324;52.040;11.528;2023-08-31T13:31:26;1.00;;;0.57;;
40621;SDS011;26324;52.040;11.528;2023-08-31T13:33:55;1.25;;;0.40;;
40621;SDS011;26324;52.040;11.528;2023-08-31T13:36:23;0.70;;;0.43;;
40621;SDS011;26324;52.040;11.528;2023-08-31T13:38:50;1.17;;;0.50;;
40621;SDS011;26324;52.040;11.528;2023-08-31T13:41:17;0.90;;;0.40;;
40621;SDS011;26324;52.040;11.528;2023-08-31T13:43:45;0.70;;;0.40;;
40621;SDS011;26324;52.040;11.528;2023-08-31T13:46:12;1.55;;;0.50;;
40621;SDS011;26324;52.040;11.528;2023-08-31T13:48:39;2.08;;;0.40;;
40621;SDS011;26324;52.040;11.528;2023-08-31T13:51:07;1.20;;;0.80;;
40621;SDS011;26324;52.040;11.528;2023-08-31T13:53:34;0.93;;;0.50;;
40621;SDS011;26324;52.040;11.528;2023-08-31T13:56:02;0.93;;;0.57;;
40621;SDS011;26324;52.040;11.528;2023-08-31T13:58:29;0.98;;;0.43;;
40621;SDS011;26324;52.040;11.528;2023-08-31T14:00:57;1.15;;;0.55;;
40621;SDS011;26324;52.040;11.528;2023-08-31T14:03:30;0.60;;;0.43;;
40621;SDS011;26324;52.040;11.528;2023-08-31T14:05:58;0.80;;;0.52;;
40621;SDS011;26324;52.040;11.528;2023-08-31T14:08:25;0.65;;;0.45;;
40621;SDS011;26324;52.040;11.528;2023-08-31T14:10:53;0.60;;;0.30;;
40621;SDS011;26324;52.040;11.528;2023-08-31T14:13:21;1.75;;;0.45;;
40621;SDS011;26324;52.040;11.528;2023-08-31T14:15:49;0.80;;;0.47;;
40621;SDS011;26324;52.040;11.528;2023-08-31T14:18:16;1.88;;;0.60;;
40621;SDS011;26324;52.040;11.528;2023-08-31T14:20:44;1.52;;;0.65;;
40621;SDS011;26324;52.040;11.528;2023-08-31T14:23:11;0.88;;;0.40;;
40621;SDS011;26324;52.040;11.528;2023-08-31T14:25:38;0.52;;;0.28;;
40621;SDS011;26324;52.040;11.528;2023-08-31T14:28:06;0.22;;;0.20;;
40621;SDS011;26324;52.040;11.528;2023-08-31T14:30:36;1.90;;;0.47;;
40621;SDS011;26324;52.040;11.528;2023-08-31T14:33:04;2.35;;;0.63;;
40621;SDS011;26324;52.040;11.528;2023-08-31T14:35:35;3.50;;;0.52;;
40621;SDS011;26324;52.040;11.528;2023-08-31T14:38:04;1.40;;;0.40;;
40621;SDS011;26324;52.040;11.528;2023-08-31T14:43:01;0.30;;;0.20;;
40621;SDS011;26324;52.040;11.528;2023-08-31T14:45:29;1.75;;;0.60;;
40621;SDS011;26324;52.040;11.528;2023-08-31T14:47:56;1.00;;;0.40;;
40621;SDS011;26324;52.040;11.528;2023-08-31T14:50:24;2.47;;;0.50;;
40621;SDS011;26324;52.040;11.528;2023-08-31T14:52:51;0.80;;;0.40;;
40621;SDS011;26324;52.040;11.528;2023-08-31T14:55:18;0.30;;;0.30;;
40621;SDS011;26324;52.040;11.528;2023-08-31T14:57:46;0.70;;;0.50;;
40621;SDS011;26324;52.040;11.528;2023-08-31T15:00:13;0.95;;;0.22;;
40621;SDS011;26324;52.040;11.528;2023-08-31T15:02:41;0.32;;;0.25;;
40621;SDS011;26324;52.040;11.528;2023-08-31T15:05:08;1.30;;;0.30;;
40621;SDS011;26324;52.040;11.528;2023-08-31T15:07:36;1.00;;;0.30;;